createdAt,value
2018-03-14T00:01:49.107Z,4.10
2018-03-14T00:04:16.660Z,5.40
2018-03-14T00:06:44.200Z,4.40
2018-03-14T00:09:12.551Z,4.53
2018-03-14T00:11:40.092Z,4.67
2018-03-14T00:14:07.641Z,4.83
2018-03-14T00:16:35.217Z,4.80
2018-03-14T00:19:02.782Z,4.60
2018-03-14T00:21:30.432Z,4.57
2018-03-14T00:23:58.556Z,4.53
2018-03-14T00:26:26.206Z,3.93
2018-03-14T00:28:53.804Z,3.63
2018-03-14T00:31:21.504Z,4.00
2018-03-14T00:33:49.241Z,4.40
2018-03-14T00:36:16.945Z,4.23
2018-03-14T00:38:45.397Z,4.43
2018-03-14T00:41:25.064Z,4.07
2018-03-14T00:43:52.742Z,4.70
2018-03-14T00:46:20.299Z,4.82
2018-03-14T00:48:48.627Z,3.97
2018-03-14T00:51:16.423Z,4.40
2018-03-14T00:53:43.991Z,4.40
2018-03-14T00:56:11.532Z,4.45
2018-03-14T00:58:39.111Z,4.60
2018-03-14T01:01:07.423Z,6.57
2018-03-14T01:03:34.967Z,5.87
2018-03-14T01:06:04.023Z,5.47
2018-03-14T01:08:31.576Z,6.27
2018-03-14T01:10:59.123Z,6.07
2018-03-14T01:13:26.711Z,5.57
2018-03-14T01:15:54.263Z,5.90
2018-03-14T01:18:21.808Z,6.10
2018-03-14T01:20:49.395Z,5.80
2018-03-14T01:23:16.943Z,5.80
2018-03-14T01:25:44.484Z,5.55
2018-03-14T01:28:12.125Z,5.53
2018-03-14T01:30:39.679Z,5.43
2018-03-14T01:33:07.231Z,6.33
2018-03-14T01:35:34.825Z,6.00
2018-03-14T01:38:02.392Z,6.93
2018-03-14T01:40:29.942Z,6.90
2018-03-14T01:42:57.516Z,7.37
2018-03-14T01:45:25.072Z,7.83
2018-03-14T01:47:52.903Z,7.63
2018-03-14T01:50:21.651Z,8.16
2018-03-14T01:52:49.199Z,9.10
2018-03-14T01:55:16.760Z,7.20
2018-03-14T01:57:44.343Z,7.70
2018-03-14T02:00:11.892Z,7.37
2018-03-14T02:02:39.444Z,6.72
2018-03-14T02:05:07.036Z,6.37
2018-03-14T02:07:35.339Z,7.80
2018-03-14T02:10:02.888Z,7.50
2018-03-14T02:12:30.540Z,7.87
2018-03-14T02:14:58.083Z,8.90
2018-03-14T02:17:26.404Z,8.13
2018-03-14T02:19:53.978Z,9.37
2018-03-14T02:22:21.537Z,7.30
2018-03-14T02:24:49.086Z,8.83
2018-03-14T02:27:17.460Z,10.90
2018-03-14T02:29:45.031Z,10.93
2018-03-14T02:32:13.487Z,9.30
2018-03-14T02:34:41.720Z,8.27
2018-03-14T02:37:09.280Z,8.93
2018-03-14T02:39:36.823Z,9.03
2018-03-14T02:42:04.428Z,7.72
2018-03-14T02:44:32.747Z,8.00
2018-03-14T02:47:00.304Z,9.10
2018-03-14T02:49:28.095Z,10.50
2018-03-14T02:51:55.627Z,7.83
2018-03-14T02:54:23.151Z,7.70
2018-03-14T02:56:51.015Z,6.90
2018-03-14T02:59:18.539Z,8.38
2018-03-14T03:01:46.070Z,8.47
2018-03-14T03:04:14.631Z,7.23
2018-03-14T03:06:42.923Z,9.20
2018-03-14T03:09:10.448Z,8.65
2018-03-14T03:11:38.028Z,9.67
2018-03-14T03:14:05.560Z,10.57
2018-03-14T03:16:33.090Z,12.98
2018-03-14T03:19:01.176Z,9.57
2018-03-14T03:21:28.711Z,11.93
2018-03-14T03:23:56.261Z,12.90
2018-03-14T03:26:23.831Z,12.33
2018-03-14T03:28:51.376Z,16.20
2018-03-14T03:31:18.912Z,11.80
2018-03-14T03:33:47.240Z,11.20
2018-03-14T03:36:16.491Z,12.65
2018-03-14T03:38:44.786Z,11.93
2018-03-14T03:41:12.676Z,10.30
2018-03-14T03:43:40.220Z,10.63
2018-03-14T03:46:07.752Z,13.50
2018-03-14T03:48:35.323Z,11.60
2018-03-14T03:51:04.022Z,12.10
2018-03-14T03:53:31.567Z,13.13
2018-03-14T03:55:59.148Z,13.83
2018-03-14T03:58:26.690Z,15.77
2018-03-14T04:00:54.995Z,13.00
2018-03-14T04:03:23.100Z,12.97
2018-03-14T04:05:50.639Z,16.17
2018-03-14T04:08:18.175Z,15.90
2018-03-14T04:10:45.751Z,14.90
2018-03-14T04:13:24.486Z,12.90
2018-03-14T04:18:25.123Z,15.43
2018-03-14T04:20:52.654Z,12.77
2018-03-14T04:23:20.184Z,16.00
2018-03-14T04:25:47.760Z,15.77
2018-03-14T04:28:16.393Z,15.48
2018-03-14T04:30:43.935Z,14.90
2018-03-14T04:33:11.522Z,17.00
2018-03-14T04:35:39.088Z,17.70
2018-03-14T04:38:06.625Z,18.30
2018-03-14T04:40:34.252Z,15.83
2018-03-14T04:43:01.781Z,18.27
2018-03-14T04:45:29.310Z,19.73
2018-03-14T04:47:56.876Z,16.93
2018-03-14T04:50:24.421Z,15.90
2018-03-14T04:52:52.215Z,14.30
2018-03-14T04:55:25.367Z,20.95
2018-03-14T04:57:52.907Z,17.10
2018-03-14T05:00:21.219Z,17.60
2018-03-14T05:02:49.288Z,18.27
2018-03-14T05:05:16.820Z,21.33
2018-03-14T05:07:44.372Z,23.67
2018-03-14T05:10:13.628Z,21.00
2018-03-14T05:12:41.169Z,21.30
2018-03-14T05:15:08.704Z,20.03
2018-03-14T05:17:37.075Z,20.43
2018-03-14T05:20:05.375Z,19.23
2018-03-14T05:22:32.913Z,19.90
2018-03-14T05:25:01.755Z,20.07
2018-03-14T05:27:29.299Z,22.60
2018-03-14T05:29:56.841Z,19.13
2018-03-14T05:32:24.427Z,17.47
2018-03-14T05:34:52.107Z,18.03
2018-03-14T05:37:19.688Z,19.65
2018-03-14T05:39:47.268Z,16.93
2018-03-14T05:42:16.482Z,24.02
2018-03-14T05:44:44.016Z,21.00
2018-03-14T05:47:11.952Z,22.67
2018-03-14T05:49:39.537Z,23.40
2018-03-14T05:52:07.076Z,22.37
2018-03-14T05:54:35.239Z,23.23
2018-03-14T05:57:02.779Z,34.13
2018-03-14T05:59:30.411Z,22.53
2018-03-14T06:01:57.988Z,19.07
2018-03-14T06:04:25.557Z,20.85
2018-03-14T06:06:53.091Z,19.60
2018-03-14T06:09:21.459Z,15.33
2018-03-14T06:11:49.000Z,18.47
2018-03-14T06:14:16.535Z,20.17
2018-03-14T06:16:44.106Z,18.10
2018-03-14T06:19:11.639Z,19.67
2018-03-14T06:21:39.191Z,18.30
2018-03-14T06:24:06.747Z,10.93
2018-03-14T06:26:34.274Z,14.07
2018-03-14T06:29:01.800Z,14.73
2018-03-14T06:31:29.819Z,13.93
2018-03-14T06:33:57.368Z,8.87
2018-03-14T06:36:25.659Z,10.93
2018-03-14T06:38:53.388Z,12.40
2018-03-14T06:41:20.923Z,7.80
2018-03-14T06:43:48.455Z,9.98
2018-03-14T06:46:16.495Z,9.65
2018-03-14T06:48:44.796Z,8.63
2018-03-14T06:51:12.327Z,16.27
2018-03-14T06:53:40.876Z,11.63
2018-03-14T06:56:09.160Z,9.43
2018-03-14T06:58:48.495Z,7.00
2018-03-14T07:01:28.611Z,8.57
2018-03-14T07:04:08.067Z,11.07
2018-03-14T07:06:35.604Z,9.27
2018-03-14T07:09:03.169Z,10.30
2018-03-14T07:11:31.083Z,10.55
2018-03-14T07:13:58.628Z,14.80
2018-03-14T07:16:26.173Z,12.32
2018-03-14T07:18:53.752Z,13.80
2018-03-14T07:21:21.280Z,9.73
2018-03-14T07:23:48.809Z,12.10
2018-03-14T07:26:16.476Z,12.10
2018-03-14T07:28:44.012Z,12.50
2018-03-14T07:31:11.557Z,13.93
2018-03-14T07:33:39.506Z,13.70
2018-03-14T07:36:07.068Z,13.33
2018-03-14T07:38:35.367Z,12.70
2018-03-14T07:41:02.964Z,14.30
2018-03-14T07:43:31.273Z,12.20
2018-03-14T07:45:58.820Z,10.97
2018-03-14T07:48:26.392Z,10.57
2018-03-14T07:50:54.855Z,10.30
2018-03-14T07:53:22.399Z,11.53
2018-03-14T07:55:51.193Z,14.70
2018-03-14T07:58:19.213Z,11.93
2018-03-14T08:00:46.747Z,10.87
2018-03-14T08:03:16.292Z,18.02
2018-03-14T08:05:43.891Z,11.23
2018-03-14T08:08:11.402Z,11.07
2018-03-14T08:10:39.000Z,10.30
2018-03-14T08:13:07.318Z,12.70
2018-03-14T08:15:34.849Z,11.77
2018-03-14T08:18:03.631Z,11.32
2018-03-14T08:20:31.172Z,13.37
2018-03-14T08:22:58.719Z,16.23
2018-03-14T08:25:26.268Z,12.53
2018-03-14T08:27:53.800Z,14.27
2018-03-14T08:30:21.337Z,18.60
2018-03-14T08:32:49.663Z,16.40
2018-03-14T08:35:17.208Z,20.03
2018-03-14T08:37:44.743Z,14.07
2018-03-14T08:40:12.722Z,14.60
2018-03-14T08:42:40.211Z,16.50
2018-03-14T08:45:07.751Z,16.07
2018-03-14T08:47:35.312Z,15.37
2018-03-14T08:50:02.892Z,17.10
2018-03-14T08:52:30.429Z,16.40
2018-03-14T08:54:58.043Z,13.87
2018-03-14T08:57:26.344Z,16.70
2018-03-14T08:59:54.407Z,14.63
2018-03-14T09:02:22.451Z,15.00
2018-03-14T09:04:50.005Z,17.13
2018-03-14T09:07:17.552Z,14.73
2018-03-14T09:09:45.193Z,15.57
2018-03-14T09:12:13.656Z,17.30
2018-03-14T09:14:41.207Z,18.67
2018-03-14T09:17:08.781Z,18.20
2018-03-14T09:19:36.319Z,16.73
2018-03-14T09:22:03.884Z,16.10
2018-03-14T09:24:31.804Z,16.45
2018-03-14T09:26:59.341Z,25.30
2018-03-14T09:29:26.899Z,18.27
2018-03-14T09:31:54.481Z,16.58
2018-03-14T09:34:22.024Z,17.93
2018-03-14T09:36:49.745Z,17.47
2018-03-14T09:39:18.167Z,19.40
2018-03-14T09:41:45.720Z,16.47
2018-03-14T09:44:15.329Z,14.68
2018-03-14T09:46:43.218Z,16.87
2018-03-14T09:49:10.768Z,17.57
2018-03-14T09:51:38.308Z,19.67
2018-03-14T09:54:05.896Z,15.50
2018-03-14T09:56:33.437Z,16.52
2018-03-14T09:59:00.979Z,16.17
2018-03-14T10:01:29.184Z,18.87
2018-03-14T10:03:57.489Z,15.43
2018-03-14T10:06:25.040Z,17.10
2018-03-14T10:08:52.940Z,18.60
2018-03-14T10:11:21.239Z,16.43
2018-03-14T10:13:48.795Z,15.03
2018-03-14T10:16:16.448Z,14.13
2018-03-14T10:18:44.751Z,14.03
2018-03-14T10:21:14.015Z,16.43
2018-03-14T10:23:42.364Z,16.67
2018-03-14T10:26:09.940Z,14.77
2018-03-14T10:28:37.472Z,12.55
2018-03-14T10:31:05.328Z,14.43
2018-03-14T10:33:32.855Z,11.57
2018-03-14T10:36:00.392Z,12.60
2018-03-14T10:38:27.988Z,12.00
2018-03-14T10:40:55.531Z,11.68
2018-03-14T10:43:23.090Z,10.70
2018-03-14T10:45:51.418Z,13.90
2018-03-14T10:48:18.953Z,15.43
2018-03-14T10:50:46.484Z,15.10
2018-03-14T10:53:24.776Z,12.55
2018-03-14T10:58:26.512Z,15.57
2018-03-14T11:01:11.796Z,13.93
2018-03-14T11:03:44.705Z,14.73
2018-03-14T11:06:12.270Z,14.17
2018-03-14T11:08:39.804Z,16.60
2018-03-14T11:11:08.028Z,15.30
2018-03-14T11:13:36.324Z,14.93
2018-03-14T11:16:03.858Z,13.93
2018-03-14T11:18:31.443Z,18.83
2018-03-14T11:20:58.979Z,16.50
2018-03-14T11:23:27.288Z,17.95
2018-03-14T11:25:54.854Z,14.27
2018-03-14T11:28:22.396Z,15.70
2018-03-14T11:30:49.931Z,20.63
2018-03-14T11:33:18.538Z,17.70
2018-03-14T11:35:46.086Z,17.77
2018-03-14T11:38:15.485Z,15.48
2018-03-14T11:40:43.052Z,17.00
2018-03-14T11:43:10.598Z,14.80
2018-03-14T11:45:38.905Z,15.43
2018-03-14T11:48:06.479Z,13.13
2018-03-14T11:50:34.015Z,16.30
2018-03-14T11:53:01.560Z,14.73
2018-03-14T11:55:30.003Z,14.67
2018-03-14T11:57:57.536Z,12.67
2018-03-14T12:00:25.073Z,16.53
2018-03-14T12:02:52.648Z,11.90
2018-03-14T12:05:20.324Z,15.57
2018-03-14T12:07:47.880Z,14.87
2018-03-14T12:10:16.563Z,13.88
2018-03-14T12:12:44.108Z,14.77
2018-03-14T12:15:12.186Z,14.53
2018-03-14T12:17:40.244Z,14.60
2018-03-14T12:20:08.560Z,13.10
2018-03-14T12:22:36.112Z,14.93
2018-03-14T12:25:03.693Z,13.40
2018-03-14T12:27:31.231Z,13.90
2018-03-14T12:29:58.805Z,10.00
2018-03-14T12:32:26.376Z,9.47
2018-03-14T12:34:53.943Z,11.63
2018-03-14T12:37:21.493Z,12.20
2018-03-14T12:39:49.368Z,11.40
2018-03-14T12:42:16.929Z,15.40
2018-03-14T12:44:44.503Z,11.68
2018-03-14T12:47:12.098Z,11.80
2018-03-14T12:49:43.919Z,13.00
2018-03-14T12:52:11.470Z,16.70
2018-03-14T12:54:39.099Z,12.80
2018-03-14T12:57:06.660Z,15.27
2018-03-14T12:59:34.940Z,14.30
2018-03-14T13:02:03.045Z,15.97
2018-03-14T13:04:30.605Z,12.27
2018-03-14T13:06:58.305Z,13.70
2018-03-14T13:09:25.914Z,12.90
2018-03-14T13:11:53.498Z,13.10
2018-03-14T13:14:21.072Z,14.45
2018-03-14T13:16:49.412Z,12.80
2018-03-14T13:19:17.025Z,15.30
2018-03-14T13:21:45.599Z,15.53
2018-03-14T13:24:24.718Z,11.98
2018-03-14T13:29:39.497Z,17.80
2018-03-14T13:32:07.051Z,11.87
2018-03-14T13:34:34.617Z,15.02
2018-03-14T13:37:02.205Z,12.20
2018-03-14T13:39:29.767Z,13.17
2018-03-14T13:41:57.312Z,12.50
2018-03-14T13:44:25.725Z,11.67
2018-03-14T13:46:53.307Z,14.10
2018-03-14T13:49:20.864Z,12.80
2018-03-14T13:51:48.472Z,12.02
2018-03-14T13:54:16.473Z,11.90
2018-03-14T13:56:44.060Z,12.80
2018-03-14T13:59:11.649Z,16.77
2018-03-14T14:01:39.220Z,17.20
2018-03-14T14:04:08.234Z,12.37
2018-03-14T14:06:37.097Z,15.77
2018-03-14T14:09:05.782Z,14.33
2018-03-14T14:11:33.344Z,13.32
2018-03-14T14:14:01.689Z,14.90
2018-03-14T14:16:29.501Z,13.88
2018-03-14T14:18:59.420Z,15.83
2018-03-14T14:21:27.759Z,17.23
2018-03-14T14:23:55.304Z,15.10
2018-03-14T14:26:22.865Z,12.35
2018-03-14T14:28:50.952Z,14.50
2018-03-14T14:31:18.597Z,19.15
2018-03-14T14:33:46.153Z,17.30
2018-03-14T14:36:16.311Z,17.10
2018-03-14T14:38:43.914Z,15.20
2018-03-14T14:41:11.487Z,13.48
2018-03-14T14:43:39.999Z,14.07
2018-03-14T14:46:07.564Z,15.40
2018-03-14T14:48:35.133Z,16.70
2018-03-14T14:51:03.057Z,15.03
2018-03-14T14:53:30.608Z,16.93
2018-03-14T14:55:58.169Z,14.47
2018-03-14T14:58:25.752Z,14.70
2018-03-14T15:00:53.308Z,16.87
2018-03-14T15:03:20.875Z,14.40
2018-03-14T15:05:50.534Z,14.20
2018-03-14T15:08:18.085Z,14.73
2018-03-14T15:10:46.997Z,14.50
2018-03-14T15:13:25.449Z,13.00
2018-03-14T15:26:30.044Z,13.53
2018-03-14T15:28:57.925Z,15.67
2018-03-14T15:31:25.652Z,14.57
2018-03-14T15:33:54.178Z,14.00
2018-03-14T15:36:22.663Z,16.40
2018-03-14T15:38:50.562Z,14.10
2018-03-14T15:41:18.865Z,13.27
2018-03-14T15:43:46.479Z,20.60
2018-03-14T15:46:15.653Z,10.38
2018-03-14T15:48:44.067Z,14.97
2018-03-14T15:51:12.452Z,14.52
2018-03-14T15:53:40.765Z,13.30
2018-03-14T15:56:08.821Z,23.20
2018-03-14T15:58:37.322Z,21.20
2018-03-14T16:01:07.978Z,13.90
2018-03-14T16:03:39.013Z,18.30
2018-03-14T16:06:07.679Z,14.38
2018-03-14T16:08:38.670Z,15.02
2018-03-14T16:11:07.489Z,20.00
2018-03-14T16:13:35.141Z,17.00
2018-03-14T16:16:03.680Z,17.23
2018-03-14T16:18:31.230Z,15.47
2018-03-14T16:20:58.768Z,19.00
2018-03-14T16:23:26.350Z,17.27
2018-03-14T16:25:53.900Z,15.43
2018-03-14T16:28:21.532Z,16.60
2018-03-14T16:30:49.064Z,14.10
2018-03-14T16:33:16.606Z,14.73
2018-03-14T16:35:44.159Z,18.43
2018-03-14T16:38:12.291Z,15.20
2018-03-14T16:40:39.840Z,17.30
2018-03-14T16:43:07.397Z,17.10
2018-03-14T16:45:35.013Z,15.70
2018-03-14T16:48:02.569Z,18.73
2018-03-14T16:50:30.126Z,26.30
2018-03-14T16:52:57.707Z,16.07
2018-03-14T16:55:25.255Z,16.80
2018-03-14T16:57:52.797Z,19.60
2018-03-14T17:00:20.984Z,18.05
2018-03-14T17:02:48.523Z,21.10
2018-03-14T17:05:16.507Z,22.85
2018-03-14T17:07:44.095Z,21.20
2018-03-14T17:10:11.633Z,19.53
2018-03-14T17:12:39.652Z,18.10
2018-03-14T17:15:07.228Z,17.20
2018-03-14T17:17:34.780Z,23.63
2018-03-14T17:20:02.333Z,31.90
2018-03-14T17:22:30.474Z,20.83
2018-03-14T17:24:58.037Z,23.43
2018-03-14T17:27:25.580Z,29.30
2018-03-14T17:29:53.143Z,28.90
2018-03-14T17:32:20.688Z,28.33
2018-03-14T17:34:49.020Z,30.10
2018-03-14T17:37:17.357Z,28.20
2018-03-14T17:39:44.895Z,26.00
2018-03-14T17:42:12.436Z,27.30
2018-03-14T17:44:40.052Z,28.77
2018-03-14T17:47:07.590Z,26.33
2018-03-14T17:49:35.129Z,29.20
2018-03-14T17:52:03.684Z,27.53
2018-03-14T17:54:32.012Z,40.47
2018-03-14T17:56:59.561Z,28.50
2018-03-14T17:59:27.143Z,29.60
2018-03-14T18:01:54.692Z,36.67
2018-03-14T18:04:22.223Z,29.13
2018-03-14T18:06:49.840Z,26.20
2018-03-14T18:09:17.499Z,24.50
2018-03-14T18:11:45.040Z,26.60
2018-03-14T18:14:14.212Z,28.80
2018-03-14T18:16:41.769Z,27.73
2018-03-14T18:19:09.332Z,30.03
2018-03-14T18:21:36.892Z,29.50
2018-03-14T18:24:04.436Z,30.15
2018-03-14T18:26:32.010Z,32.45
2018-03-14T18:29:00.190Z,29.20
2018-03-14T18:31:27.754Z,30.02
2018-03-14T18:33:55.330Z,30.67
2018-03-14T18:36:22.907Z,30.63
2018-03-14T18:38:50.482Z,36.17
2018-03-14T18:41:18.041Z,35.73
2018-03-14T18:43:45.620Z,34.73
2018-03-14T18:46:15.386Z,34.53
2018-03-14T18:48:42.933Z,38.50
2018-03-14T18:51:10.552Z,37.58
2018-03-14T18:53:38.203Z,31.17
2018-03-14T18:56:05.756Z,37.30
2018-03-14T18:58:34.084Z,33.25
2018-03-14T19:01:01.623Z,28.85
2018-03-14T19:03:29.228Z,29.20
2018-03-14T19:05:56.788Z,30.80
2018-03-14T19:08:24.332Z,26.90
2018-03-14T19:10:51.877Z,33.73
2018-03-14T19:13:19.872Z,28.73
2018-03-14T19:15:47.892Z,32.20
2018-03-14T19:18:17.221Z,33.30
2018-03-14T19:20:44.813Z,35.13
2018-03-14T19:23:12.369Z,34.10
2018-03-14T19:25:39.924Z,34.40
2018-03-14T19:28:07.503Z,32.72
2018-03-14T19:30:35.048Z,35.10
2018-03-14T19:33:02.584Z,36.27
2018-03-14T19:35:30.212Z,37.23
2018-03-14T19:37:57.747Z,35.53
2018-03-14T19:40:25.283Z,33.37
2018-03-14T19:42:52.910Z,34.17
2018-03-14T19:45:20.802Z,32.18
2018-03-14T19:47:48.366Z,36.40
2018-03-14T19:50:17.285Z,38.80
2018-03-14T19:52:44.828Z,37.83
2018-03-14T19:55:12.369Z,36.87
2018-03-14T19:57:40.564Z,34.37
2018-03-14T20:00:08.104Z,34.87
2018-03-14T20:02:35.644Z,40.33
2018-03-14T20:05:03.490Z,35.33
2018-03-14T20:07:31.024Z,36.40
2018-03-14T20:09:58.568Z,45.50
2018-03-14T20:12:26.132Z,36.10
2018-03-14T20:14:53.680Z,40.83
2018-03-14T20:17:21.638Z,41.57
2018-03-14T20:19:49.551Z,38.23
2018-03-14T20:22:17.140Z,38.53
2018-03-14T20:24:44.679Z,39.63
2018-03-14T20:27:12.379Z,42.50
2018-03-14T20:29:39.919Z,42.77
2018-03-14T20:32:07.529Z,41.35
2018-03-14T20:34:35.084Z,44.90
2018-03-14T20:37:02.624Z,38.20
2018-03-14T20:39:30.164Z,43.60
2018-03-14T20:41:58.042Z,38.47
2018-03-14T20:44:25.587Z,43.43
2018-03-14T20:46:53.172Z,39.83
2018-03-14T20:49:20.753Z,43.63
2018-03-14T20:51:48.296Z,43.80
2018-03-14T20:54:17.070Z,43.97
2018-03-14T20:56:44.653Z,41.93
2018-03-14T20:59:12.250Z,44.87
2018-03-14T21:01:39.766Z,48.90
2018-03-14T21:04:08.565Z,43.40
2018-03-14T21:06:36.171Z,55.93
2018-03-14T21:09:04.016Z,46.60
2018-03-14T21:11:31.649Z,49.15
2018-03-14T21:14:00.324Z,53.33
2018-03-14T21:16:27.868Z,51.35
2018-03-14T21:18:55.980Z,48.95
2018-03-14T21:21:23.719Z,49.60
2018-03-14T21:23:51.305Z,50.80
2018-03-14T21:26:18.924Z,51.20
2018-03-14T21:28:47.383Z,55.15
2018-03-14T21:31:16.484Z,50.90
2018-03-14T21:33:44.036Z,49.93
2018-03-14T21:36:12.357Z,53.15
2018-03-14T21:38:46.316Z,55.10
2018-03-14T21:41:16.259Z,59.05
2018-03-14T21:43:45.102Z,53.97
2018-03-14T21:46:13.631Z,56.80
2018-03-14T21:48:41.174Z,56.70
2018-03-14T21:51:08.816Z,61.67
2018-03-14T21:53:36.328Z,60.97
2018-03-14T21:56:03.871Z,55.00
2018-03-14T21:58:31.408Z,52.22
2018-03-14T22:00:59.007Z,53.97
2018-03-14T22:03:26.554Z,57.30
2018-03-14T22:05:54.097Z,58.60
2018-03-14T22:08:22.297Z,58.67
2018-03-14T22:10:50.265Z,57.03
2018-03-14T22:13:17.818Z,61.20
2018-03-14T22:15:45.400Z,53.00
2018-03-14T22:18:24.512Z,61.00
2018-03-14T22:21:32.408Z,55.47
2018-03-14T22:23:59.947Z,67.20
2018-03-14T22:26:27.477Z,61.00
2018-03-14T22:28:55.428Z,65.30
2018-03-14T22:31:22.987Z,58.33
2018-03-14T22:33:50.528Z,62.72
2018-03-14T22:36:19.508Z,56.57
2018-03-14T22:38:47.048Z,55.67
2018-03-14T22:41:17.178Z,59.78
2018-03-14T22:43:44.744Z,59.47
2018-03-14T22:46:12.322Z,58.47
2018-03-14T22:48:39.841Z,56.83
2018-03-14T22:51:07.459Z,63.93
2018-03-14T22:53:35.164Z,54.80
2018-03-14T22:56:03.463Z,60.20
2018-03-14T22:58:31.029Z,54.63
2018-03-14T23:00:58.559Z,62.60
2018-03-14T23:03:26.093Z,63.75
2018-03-14T23:05:53.657Z,56.63
2018-03-14T23:08:21.192Z,60.97
2018-03-14T23:10:48.740Z,61.53
2018-03-14T23:13:16.735Z,71.87
2018-03-14T23:15:44.276Z,61.73
2018-03-14T23:18:11.810Z,60.37
2018-03-14T23:20:39.384Z,61.23
2018-03-14T23:23:07.336Z,62.43
2018-03-14T23:25:34.873Z,61.87
2018-03-14T23:28:03.207Z,63.60
2018-03-14T23:30:30.756Z,60.70
2018-03-14T23:32:58.287Z,56.87
2018-03-14T23:35:26.500Z,56.60
2018-03-14T23:37:54.065Z,56.90
2018-03-14T23:40:21.608Z,63.50
2018-03-14T23:42:49.172Z,58.87
2018-03-14T23:45:16.703Z,55.37
2018-03-14T23:47:44.239Z,58.83
2018-03-14T23:50:11.805Z,57.87
2018-03-14T23:52:39.395Z,55.30
2018-03-14T23:55:07.679Z,58.20
2018-03-14T23:57:35.789Z,56.87
